createdAt,value
2023-01-23T00:01:03.421Z,-2.30
2023-01-23T00:04:05.880Z,-2.31
2023-01-23T00:07:07.745Z,-2.32
2023-01-23T00:10:12.107Z,-2.36
2023-01-23T00:13:13.950Z,-2.43
2023-01-23T00:16:17.524Z,-2.40
2023-01-23T00:19:19.507Z,-2.41
2023-01-23T00:22:21.565Z,-2.43
2023-01-23T00:25:24.781Z,-2.44
2023-01-23T00:28:26.501Z,-2.45
2023-01-23T00:31:30.388Z,-2.49
2023-01-23T00:34:32.225Z,-2.53
2023-01-23T00:37:33.961Z,-2.50
2023-01-23T00:40:37.103Z,-2.47
2023-01-23T00:43:38.889Z,-2.53
2023-01-23T00:46:40.740Z,-2.52
2023-01-23T00:49:42.605Z,-2.49
2023-01-23T00:52:44.397Z,-2.50
2023-01-23T00:55:47.731Z,-2.49
2023-01-23T00:58:49.526Z,-2.46
2023-01-23T01:01:51.295Z,-2.43
2023-01-23T01:04:53.127Z,-2.40
2023-01-23T01:07:54.852Z,-2.40
2023-01-23T01:10:58.347Z,-2.42
2023-01-23T01:14:00.135Z,-2.47
2023-01-23T01:17:01.934Z,-2.50
2023-01-23T01:20:04.577Z,-2.52
2023-01-23T01:23:06.353Z,-2.50
2023-01-23T01:26:10.528Z,-2.46
2023-01-23T01:29:12.330Z,-2.47
2023-01-23T01:32:14.148Z,-2.45
2023-01-23T01:35:15.932Z,-2.47
2023-01-23T01:38:17.714Z,-2.46
2023-01-23T01:41:20.952Z,-2.48
2023-01-23T01:44:24.413Z,-2.49
2023-01-23T01:47:26.737Z,-2.46
2023-01-23T01:50:28.639Z,-2.50
2023-01-23T01:53:32.326Z,-2.46
2023-01-23T01:56:39.661Z,-2.53
2023-01-23T01:59:46.683Z,-2.49
2023-01-23T02:02:51.433Z,-2.49
2023-01-23T02:05:53.370Z,-2.48
2023-01-23T02:09:01.798Z,-2.53
2023-01-23T02:12:05.231Z,-2.53
2023-01-23T02:15:08.401Z,-2.42
2023-01-23T02:18:10.182Z,-2.44
2023-01-23T02:21:14.041Z,-2.40
2023-01-23T02:24:23.695Z,-2.43
2023-01-23T02:27:26.839Z,-2.42
2023-01-23T02:30:28.716Z,-2.40
2023-01-23T02:33:49.419Z,-2.42
2023-01-23T02:36:51.391Z,-2.41
2023-01-23T02:39:53.227Z,-2.38
2023-01-23T02:42:56.803Z,-2.41
2023-01-23T02:45:58.625Z,-2.38
2023-01-23T02:49:00.391Z,-2.39
2023-01-23T02:52:02.231Z,-2.47
2023-01-23T02:55:04.557Z,-2.41
2023-01-23T02:58:07.881Z,-2.40
2023-01-23T03:01:10.276Z,-2.39
2023-01-23T03:04:12.091Z,-2.39
2023-01-23T03:07:13.894Z,-2.39
2023-01-23T03:10:16.113Z,-2.42
2023-01-23T03:13:19.273Z,-2.44
2023-01-23T03:16:21.088Z,-2.47
2023-01-23T03:19:25.181Z,-2.48
2023-01-23T03:22:26.960Z,-2.42
2023-01-23T03:25:28.707Z,-2.48
2023-01-23T03:28:31.857Z,-2.42
2023-01-23T03:31:33.637Z,-2.42
2023-01-23T03:34:36.131Z,-2.40
2023-01-23T03:37:37.904Z,-2.38
2023-01-23T03:40:39.710Z,-2.31
2023-01-23T03:43:42.917Z,-2.33
2023-01-23T03:46:44.748Z,-2.28
2023-01-23T03:49:46.720Z,-2.27
2023-01-23T03:52:48.463Z,-2.29
2023-01-23T03:55:50.243Z,-2.36
2023-01-23T03:58:53.435Z,-2.32
2023-01-23T04:01:55.203Z,-2.38
2023-01-23T04:04:57.001Z,-2.28
2023-01-23T04:07:58.736Z,-2.32
2023-01-23T04:11:05.364Z,-2.28
2023-01-23T04:14:08.493Z,-2.36
2023-01-23T04:17:11.230Z,-2.28
2023-01-23T04:20:13.757Z,-2.20
2023-01-23T04:23:15.539Z,-2.18
2023-01-23T04:26:17.299Z,-2.21
2023-01-23T04:29:20.633Z,-2.23
2023-01-23T04:32:22.403Z,-2.23
2023-01-23T04:35:24.350Z,-2.26
2023-01-23T04:38:28.419Z,-2.26
2023-01-23T04:41:32.419Z,-2.21
2023-01-23T04:44:35.577Z,-2.27
2023-01-23T04:47:37.372Z,-2.22
2023-01-23T04:50:39.768Z,-2.21
2023-01-23T04:53:41.517Z,-2.19
2023-01-23T04:56:43.552Z,-2.20
2023-01-23T04:59:46.738Z,-2.19
2023-01-23T05:02:49.287Z,-2.28
2023-01-23T05:05:51.127Z,-2.20
2023-01-23T05:08:52.912Z,-2.20
2023-01-23T05:11:54.672Z,-2.16
2023-01-23T05:14:57.849Z,-2.27
2023-01-23T05:17:59.619Z,-2.17
2023-01-23T05:21:01.439Z,-2.17
2023-01-23T05:24:03.265Z,-2.17
2023-01-23T05:27:05.292Z,-2.20
2023-01-23T05:30:10.192Z,-2.15
2023-01-23T05:33:12.031Z,-2.16
2023-01-23T05:36:13.827Z,-2.16
2023-01-23T05:39:15.602Z,-2.12
2023-01-23T05:42:17.399Z,-2.13
2023-01-23T05:45:20.519Z,-2.17
2023-01-23T05:48:23.042Z,-2.11
2023-01-23T05:51:24.842Z,-2.11
2023-01-23T05:54:26.648Z,-2.12
2023-01-23T05:57:28.397Z,-2.11
2023-01-23T06:00:31.588Z,-2.11
2023-01-23T06:03:33.645Z,-2.08
2023-01-23T06:06:35.484Z,-2.07
2023-01-23T06:09:37.277Z,-2.08
2023-01-23T06:12:39.036Z,-2.09
2023-01-23T06:15:42.245Z,-2.07
2023-01-23T06:18:44.072Z,-2.06
2023-01-23T06:21:45.818Z,-2.03
2023-01-23T06:24:47.635Z,-2.04
2023-01-23T06:27:49.430Z,-2.01
2023-01-23T06:30:52.695Z,-1.99
2023-01-23T06:33:54.555Z,-1.94
2023-01-23T06:36:56.362Z,-1.98
2023-01-23T06:39:58.223Z,-1.96
2023-01-23T06:43:00.019Z,-1.88
2023-01-23T06:46:03.167Z,-1.94
2023-01-23T06:49:06.402Z,-1.86
2023-01-23T06:52:08.244Z,-1.88
2023-01-23T06:55:13.831Z,-1.92
2023-01-23T06:58:16.563Z,-1.79
2023-01-23T07:01:19.866Z,-1.92
2023-01-23T07:04:22.538Z,-1.98
2023-01-23T07:07:24.670Z,-1.85
2023-01-23T07:10:28.397Z,-1.86
2023-01-23T07:13:30.265Z,-1.84
2023-01-23T07:16:33.447Z,-1.81
2023-01-23T07:19:35.342Z,-1.81
2023-01-23T07:22:37.167Z,-1.78
2023-01-23T07:25:39.575Z,-1.79
2023-01-23T07:28:41.364Z,-1.77
2023-01-23T07:31:44.623Z,-1.76
2023-01-23T07:34:46.664Z,-1.66
2023-01-23T07:37:48.566Z,-1.71
2023-01-23T07:40:50.514Z,-1.75
2023-01-23T07:43:52.406Z,-1.76
2023-01-23T07:46:56.500Z,-1.82
2023-01-23T07:49:58.380Z,-1.79
2023-01-23T07:53:00.189Z,-1.79
2023-01-23T07:56:04.778Z,-1.84
2023-01-23T07:59:06.741Z,-1.81
2023-01-23T08:02:10.611Z,-1.59
2023-01-23T08:05:13.510Z,-1.67
2023-01-23T08:08:16.797Z,-1.67
2023-01-23T08:11:19.767Z,-1.71
2023-01-23T08:14:21.988Z,-1.77
2023-01-23T08:17:25.319Z,-1.75
2023-01-23T08:20:27.298Z,-1.67
2023-01-23T08:23:31.779Z,-1.66
2023-01-23T08:26:35.978Z,-1.61
2023-01-23T08:29:37.918Z,-1.52
2023-01-23T08:32:41.168Z,-1.50
2023-01-23T08:35:49.174Z,-1.52
2023-01-23T08:38:51.434Z,-1.42
2023-01-23T08:41:53.287Z,-1.51
2023-01-23T08:44:55.566Z,-1.35
2023-01-23T08:47:58.795Z,-1.43
2023-01-23T08:51:03.206Z,-1.42
2023-01-23T08:54:05.325Z,-1.45
2023-01-23T08:57:07.617Z,-1.46
2023-01-23T09:00:11.453Z,-1.39
2023-01-23T09:03:15.279Z,-1.43
2023-01-23T09:06:21.858Z,-1.44
2023-01-23T09:09:23.647Z,-1.36
2023-01-23T09:12:25.905Z,-1.34
2023-01-23T09:15:28.926Z,-1.34
2023-01-23T09:18:32.529Z,-1.25
2023-01-23T09:21:34.489Z,-1.22
2023-01-23T09:24:36.316Z,-1.11
2023-01-23T09:27:38.329Z,-1.14
2023-01-23T09:30:40.647Z,-1.18
2023-01-23T09:33:44.039Z,-1.13
2023-01-23T09:36:45.830Z,-1.07
2023-01-23T09:39:48.085Z,-1.12
2023-01-23T09:42:51.572Z,-1.09
2023-01-23T09:46:02.372Z,-1.05
2023-01-23T09:49:14.091Z,-1.07
2023-01-23T09:52:19.556Z,-0.99
2023-01-23T09:55:28.884Z,-1.05
2023-01-23T09:58:37.474Z,-1.00
2023-01-23T10:01:40.475Z,-0.93
2023-01-23T10:04:43.931Z,-0.95
2023-01-23T10:07:59.007Z,-0.99
2023-01-23T10:11:07.671Z,-0.97
2023-01-23T10:14:29.880Z,-0.99
2023-01-23T10:17:39.123Z,-1.07
2023-01-23T10:21:04.731Z,-1.15
2023-01-23T10:24:23.734Z,-1.15
2023-01-23T10:27:33.806Z,-1.14
2023-01-23T10:30:37.338Z,-1.12
2023-01-23T10:33:47.295Z,-1.03
2023-01-23T10:37:06.067Z,-1.10
2023-01-23T10:40:12.941Z,-0.98
2023-01-23T10:43:16.686Z,-1.04
2023-01-23T10:46:21.475Z,-1.05
2023-01-23T10:49:32.560Z,-0.96
2023-01-23T10:52:38.259Z,-0.92
2023-01-23T10:55:45.435Z,-1.06
2023-01-23T10:58:48.619Z,-1.04
2023-01-23T11:01:59.938Z,-1.07
2023-01-23T11:05:03.331Z,-1.02
2023-01-23T11:08:23.731Z,-1.14
2023-01-23T11:11:27.264Z,-1.05
2023-01-23T11:14:29.993Z,-1.06
2023-01-23T11:17:33.768Z,-1.08
2023-01-23T11:20:37.394Z,-0.94
2023-01-23T11:23:40.608Z,-1.06
2023-01-23T11:26:42.381Z,-1.01
2023-01-23T11:30:02.356Z,-1.05
2023-01-23T11:33:13.819Z,-0.94
2023-01-23T11:36:32.007Z,-0.95
2023-01-23T11:39:45.863Z,-0.96
2023-01-23T11:42:48.634Z,-0.87
2023-01-23T11:46:06.383Z,-0.73
2023-01-23T11:49:23.109Z,-0.82
2023-01-23T11:52:38.189Z,-0.79
2023-01-23T11:55:53.016Z,-0.77
2023-01-23T11:59:25.221Z,-0.75
2023-01-23T12:02:58.114Z,-0.81
2023-01-23T12:06:20.246Z,-0.83
2023-01-23T12:09:25.604Z,-0.88
2023-01-23T12:12:44.921Z,-0.80
2023-01-23T12:16:07.911Z,-0.95
2023-01-23T12:19:21.739Z,-0.91
2023-01-23T12:22:28.444Z,-0.79
2023-01-23T12:25:35.404Z,-0.88
2023-01-23T12:28:54.685Z,-0.83
2023-01-23T12:32:21.417Z,-0.61
2023-01-23T12:35:33.833Z,-0.98
2023-01-23T12:38:46.060Z,-0.90
2023-01-23T12:41:52.137Z,-0.82
2023-01-23T12:45:03.051Z,-0.83
2023-01-23T12:48:10.715Z,-0.81
2023-01-23T12:51:21.383Z,-0.93
2023-01-23T12:54:33.318Z,-0.97
2023-01-23T12:57:46.129Z,-0.92
2023-01-23T13:01:15.564Z,-1.00
2023-01-23T13:04:36.985Z,-0.92
2023-01-23T13:07:51.617Z,-0.85
2023-01-23T13:11:04.882Z,-0.82
2023-01-23T13:14:17.540Z,-0.82
2023-01-23T13:17:35.720Z,-0.86
2023-01-23T13:20:52.846Z,-0.89
2023-01-23T13:24:25.262Z,-0.80
2023-01-23T13:27:48.828Z,-0.87
2023-01-23T13:31:24.196Z,-0.84
2023-01-23T13:34:37.918Z,-0.93
2023-01-23T13:37:49.570Z,-1.04
2023-01-23T13:41:24.385Z,-1.12
2023-01-23T13:44:40.993Z,-1.03
2023-01-23T14:24:22.292Z,-1.05
2023-01-23T14:27:30.639Z,-1.06
2023-01-23T14:30:32.964Z,-1.10
2023-01-23T14:33:44.980Z,-1.03
2023-01-23T14:36:52.327Z,-1.06
2023-01-23T14:39:59.853Z,-1.10
2023-01-23T14:43:05.063Z,-1.23
2023-01-23T14:46:15.205Z,-1.29
2023-01-23T14:49:24.198Z,-1.27
2023-01-23T14:52:32.143Z,-1.32
2023-01-23T14:55:39.392Z,-1.28
2023-01-23T14:58:42.224Z,-1.24
2023-01-23T15:01:53.462Z,-1.20
2023-01-23T15:05:09.548Z,-1.13
2023-01-23T15:08:21.005Z,-1.14
2023-01-23T15:11:29.103Z,-1.14
2023-01-23T15:14:36.491Z,-1.13
2023-01-23T15:17:45.227Z,-1.18
2023-01-23T15:20:53.923Z,-1.24
2023-01-23T15:24:05.904Z,-1.26
2023-01-23T15:27:24.097Z,-1.20
2023-01-23T15:30:40.594Z,-1.15
2023-01-23T15:33:42.446Z,-1.20
2023-01-23T15:36:48.041Z,-1.14
2023-01-23T15:39:54.004Z,-1.12
2023-01-23T15:43:05.919Z,-0.99
2023-01-23T15:46:10.420Z,-1.14
2023-01-23T15:49:24.435Z,-1.00
2023-01-23T15:52:29.236Z,-0.96
2023-01-23T15:55:31.262Z,-0.98
2023-01-23T15:58:34.491Z,-0.98
2023-01-23T16:01:36.428Z,-0.97
2023-01-23T16:04:38.389Z,-0.77
2023-01-23T16:07:44.005Z,-0.71
2023-01-23T16:10:47.466Z,-0.86
2023-01-23T16:13:51.110Z,-1.01
2023-01-23T16:16:53.005Z,-0.95
2023-01-23T16:19:54.960Z,-0.87
2023-01-23T16:23:01.906Z,-0.71
2023-01-23T16:26:16.730Z,-0.75
2023-01-23T16:29:27.311Z,-0.83
2023-01-23T16:32:29.556Z,-0.81
2023-01-23T16:35:32.036Z,-0.85
2023-01-23T16:38:34.633Z,-0.91
2023-01-23T16:41:37.111Z,-0.96
2023-01-23T16:44:40.498Z,-0.99
2023-01-23T16:47:42.811Z,-0.85
2023-01-23T16:50:50.056Z,-0.82
2023-01-23T16:53:55.946Z,-0.83
2023-01-23T16:56:58.554Z,-0.81
2023-01-23T17:00:02.506Z,-0.90
2023-01-23T17:03:09.270Z,-0.80
2023-01-23T17:06:13.759Z,-0.67
2023-01-23T17:09:16.320Z,-0.64
2023-01-23T17:12:25.704Z,-0.68
2023-01-23T17:15:31.580Z,-0.59
2023-01-23T17:18:37.066Z,-0.58
2023-01-23T17:21:39.672Z,-0.49
2023-01-23T17:24:42.620Z,-0.44
2023-01-23T17:27:51.885Z,-0.43
2023-01-23T17:31:01.266Z,-0.41
2023-01-23T17:34:04.420Z,-0.28
2023-01-23T17:37:18.770Z,-0.45
2023-01-23T17:40:21.118Z,-0.47
2023-01-23T17:43:24.446Z,-0.29
2023-01-23T17:46:35.559Z,-0.41
2023-01-23T17:49:39.252Z,-0.49
2023-01-23T17:52:41.906Z,-0.38
2023-01-23T17:55:44.832Z,-0.47
2023-01-23T17:58:49.666Z,-0.47
2023-01-23T18:01:54.473Z,-0.43
2023-01-23T18:04:59.314Z,-0.32
2023-01-23T18:08:03.660Z,-0.26
2023-01-23T18:11:10.118Z,-0.40
2023-01-23T18:14:38.119Z,-0.41
2023-01-23T18:17:49.056Z,-0.39
2023-01-23T18:20:52.911Z,-0.32
2023-01-23T18:23:56.152Z,-0.30
2023-01-23T18:27:01.643Z,-0.38
2023-01-23T18:30:23.769Z,-0.43
2023-01-23T18:34:00.746Z,-0.35
2023-01-23T18:37:17.603Z,-0.29
2023-01-23T18:40:27.722Z,-0.34
2023-01-23T18:43:36.491Z,-0.36
2023-01-23T18:46:39.596Z,-0.40
2023-01-23T18:49:45.295Z,-0.39
2023-01-23T18:52:55.210Z,-0.51
2023-01-23T18:56:10.995Z,-0.55
2023-01-23T18:59:23.701Z,-0.51
2023-01-23T19:02:36.516Z,-0.42
2023-01-23T19:05:41.825Z,-0.36
2023-01-23T19:08:45.661Z,-0.42
2023-01-23T19:12:02.628Z,-0.34
2023-01-23T19:15:24.707Z,-0.36
2023-01-23T19:18:44.735Z,-0.27
2023-01-23T19:21:50.621Z,-0.38
2023-01-23T19:24:55.270Z,-0.43
2023-01-23T19:28:00.805Z,-0.47
2023-01-23T19:31:05.415Z,-0.43
2023-01-23T19:34:08.659Z,-0.36
2023-01-23T19:37:13.726Z,-0.53
2023-01-23T19:40:17.957Z,-0.47
2023-01-23T19:43:21.892Z,-0.43
2023-01-23T19:46:28.932Z,-0.39
2023-01-23T19:49:34.157Z,-0.32
2023-01-23T19:52:42.006Z,-0.35
2023-01-23T19:55:45.613Z,-0.37
2023-01-23T19:58:49.644Z,-0.41
2023-01-23T20:01:56.082Z,-0.39
2023-01-23T20:04:58.748Z,-0.39
2023-01-23T20:08:03.591Z,-0.32
2023-01-23T20:11:06.712Z,-0.41
2023-01-23T20:14:10.101Z,-0.47
2023-01-23T20:17:14.166Z,-0.44
2023-01-23T20:20:19.151Z,-0.48
2023-01-23T20:23:24.271Z,-0.66
2023-01-23T20:26:27.715Z,-0.61
2023-01-23T20:29:30.752Z,-0.52
2023-01-23T20:32:34.327Z,-0.65
2023-01-23T20:35:39.969Z,-0.57
2023-01-23T20:38:45.122Z,-0.49
2023-01-23T20:41:49.976Z,-0.70
2023-01-23T20:44:53.407Z,-0.63
2023-01-23T20:47:57.508Z,-0.66
2023-01-23T20:51:00.185Z,-0.57
2023-01-23T20:54:04.953Z,-0.56
2023-01-23T20:57:07.876Z,-0.54
2023-01-23T21:00:12.015Z,-0.57
2023-01-23T21:03:14.779Z,-0.58
2023-01-23T21:06:18.716Z,-0.52
2023-01-23T21:09:24.027Z,-0.54
2023-01-23T21:12:26.724Z,-0.48
2023-01-23T21:15:29.978Z,-0.44
2023-01-23T21:18:35.690Z,-0.39
2023-01-23T21:21:38.934Z,-0.46
2023-01-23T21:24:42.420Z,-0.41
2023-01-23T21:27:45.485Z,-0.41
2023-01-23T21:30:48.521Z,-0.36
2023-01-23T21:33:51.462Z,-0.32
2023-01-23T21:36:53.897Z,-0.37
2023-01-23T21:39:58.586Z,-0.27
2023-01-23T21:43:00.712Z,-0.28
2023-01-23T21:46:03.286Z,-0.32
2023-01-23T21:49:05.305Z,-0.27
2023-01-23T21:52:07.298Z,-0.29
2023-01-23T21:55:10.594Z,-0.24
2023-01-23T21:58:13.077Z,-0.24
2023-01-23T22:01:17.511Z,-0.27
2023-01-23T22:04:21.243Z,-0.27
2023-01-23T22:07:24.487Z,-0.21
2023-01-23T22:10:28.003Z,-0.36
2023-01-23T22:13:29.921Z,-0.35
2023-01-23T22:16:47.545Z,-0.29
2023-01-23T22:19:50.758Z,-0.28
2023-01-23T22:22:52.559Z,-0.26
2023-01-23T22:25:58.880Z,-0.29
2023-01-23T22:29:00.746Z,-0.27
2023-01-23T22:32:02.801Z,-0.34
2023-01-23T22:35:06.301Z,-0.32
2023-01-23T22:38:09.767Z,-0.33
2023-01-23T22:41:14.364Z,-0.36
2023-01-23T22:44:16.835Z,-0.37
2023-01-23T22:47:18.890Z,-0.32
2023-01-23T22:50:21.035Z,-0.44
2023-01-23T22:53:22.964Z,-0.48
2023-01-23T22:56:27.182Z,-0.37
2023-01-23T22:59:29.472Z,-0.37
2023-01-23T23:02:31.800Z,-0.44
2023-01-23T23:05:34.140Z,-0.40
2023-01-23T23:08:36.100Z,-0.40
2023-01-23T23:11:40.999Z,-0.30
2023-01-23T23:14:43.110Z,-0.37
2023-01-23T23:17:44.913Z,-0.27
2023-01-23T23:20:47.330Z,-0.22
2023-01-23T23:23:49.353Z,-0.32
2023-01-23T23:26:52.746Z,-0.31
2023-01-23T23:29:54.613Z,-0.26
2023-01-23T23:32:56.525Z,-0.32
2023-01-23T23:35:58.588Z,-0.29
2023-01-23T23:39:01.037Z,-0.27
2023-01-23T23:42:04.717Z,-0.29
2023-01-23T23:45:07.356Z,-0.22
2023-01-23T23:48:09.652Z,-0.29
2023-01-23T23:51:13.961Z,-0.24
2023-01-23T23:54:16.232Z,-0.19
2023-01-23T23:57:19.882Z,-0.22
